Time;durP1;ratioP1;P1;durP2;ratioP2;P2;SDS_P1;SDS_P2;PMS_P1;PMS_P2;Temp;Humidity;BMP_temperature;BMP_pressure;BME280_temperature;BME280_humidity;BME280_pressure;Samples;Min_cycle;Max_cycle;Signal;HPM_P1;HPM_P2
2024/01/29 00:00:58;;;;;;;;;;;;;;;;;;4562944;28;4124196;-78
2024/01/29 00:03:28;;;;;;;;;;;;;;;;;;4637173;28;3407281;-79
2024/01/29 00:05:59;;;;;;;;;;;;;;;;;;4601743;28;2049204;-79
2024/01/29 00:08:26;;;;;;;;;;;;;;;;;;4683880;28;1364201;-78
2024/01/29 00:10:53;;;;;;;;;;;;;;;;;;4704384;28;2741182;-79
2024/01/29 00:13:23;;;;;;;;;;;;;;;;;;4678752;28;1346203;-79
2024/01/29 00:15:51;;;;;;;;;;;;;;;;;;4658530;28;1720226;-79
2024/01/29 00:18:21;;;;;;;;;;;;;;;;;;4576756;28;2007170;-79
2024/01/29 00:20:49;;;;;;;;;;;;;;;;;;4717170;28;1480189;-79
2024/01/29 00:23:17;;;;;;;;;;;;;;;;;;4631402;28;3172219;-79
2024/01/29 00:25:46;;;;;;;;;;;;;;;;;;4541622;28;2404214;-79
2024/01/29 00:28:13;;;;;;;;;;;;;;;;;;4438391;28;6405204;-78
2024/01/29 00:30:43;;;;;;;;;;;;;;;;;;4541749;28;5097237;-78
2024/01/29 00:33:10;;;;;;;;;;;;;;;;;;4549905;28;3308219;-79
2024/01/29 00:35:38;;;;;;;;;;;;;;;;;;4612185;28;1601202;-79
2024/01/29 00:38:05;;;;;;;;;;;;;;;;;;4687799;28;1181195;-79
2024/01/29 00:40:33;;;;;;;;;;;;;;;;;;4592403;28;3669194;-79
2024/01/29 00:43:00;;;;;;;;;;;;;;;;;;4610114;28;3739219;-79
2024/01/29 00:45:28;;;;;;;;;;;;;;;;;;4645082;28;1165255;-79
2024/01/29 00:47:57;;;;;;;;;;;;;;;;;;4641589;28;2000177;-79
2024/01/29 00:50:30;;;;;;;;;;;;;;;;;;4623237;28;2521192;-79
2024/01/29 00:52:58;;;;;;;;;;;;;;;;;;4568849;28;1981996;-79
2024/01/29 00:55:26;;;;;;;;;;;;;;;;;;4580743;28;2157200;-79
2024/01/29 00:57:53;;;;;;;;;;;;;;;;;;4484863;28;4275213;-79
2024/01/29 01:00:24;;;;;;;;;;;;;;;;;;4581330;28;2526204;-79
2024/01/29 01:02:59;;;;;;;;;;;;;;;;;;4500074;28;9192215;-79
2024/01/29 01:05:26;;;;;;;;;;;;;;;;;;4544330;28;2486192;-79
2024/01/29 01:07:55;;;;;;;;;;;;;;;;;;4557400;28;2762192;-79
2024/01/29 01:10:23;;;;;;;;;;;;;;;;;;4645092;28;1898235;-79
2024/01/29 01:12:51;;;;;;;;;;;;;;;;;;4598061;28;3676204;-79
2024/01/29 01:15:19;;;;;;;;;;;;;;;;;;4553414;28;3130200;-79
2024/01/29 01:17:51;;;;;;;;;;;;;;;;;;4558005;28;2553207;-79
2024/01/29 01:20:25;;;;;;;;;;;;;;;;;;4571458;28;6907192;-79
2024/01/29 01:22:54;;;;;;;;;;;;;;;;;;4506751;28;6512202;-79
2024/01/29 01:25:24;;;;;;;;;;;;;;;;;;4494546;28;3781202;-79
2024/01/29 01:27:53;;;;;;;;;;;;;;;;;;4558028;28;6781214;-79
2024/01/29 01:30:22;;;;;;;;;;;;;;;;;;4596819;28;1312300;-79
2024/01/29 01:32:50;;;;;;;;;;;;;;;;;;4564354;28;3638227;-79
2024/01/29 01:35:18;;;;;;;;;;;;;;;;;;4484958;28;3077245;-79
2024/01/29 01:37:46;;;;;;;;;;;;;;;;;;4615363;28;2532222;-79
2024/01/29 01:40:14;;;;;;;;;;;;;;;;;;4501898;28;3554202;-79
2024/01/29 01:42:44;;;;;;;;;;;;;;;;;;4496076;28;4770180;-79
2024/01/29 01:45:13;;;;;;;;;;;;;;;;;;4536947;28;2648196;-79
2024/01/29 01:47:40;;;;;;;;;;;;;;;;;;4491810;28;4721197;-79
2024/01/29 01:50:08;;;;;;;;;;;;;;;;;;4583670;28;2652173;-79
2024/01/29 01:52:35;;;;;;;;;;;;;;;;;;4602260;28;3992222;-79
2024/01/29 01:55:04;;;;;;;;;;;;;;;;;;4712148;28;1151248;-79
2024/01/29 01:57:34;;;;;;;;;;;;;;;;;;4555363;28;3364193;-79
2024/01/29 02:00:04;;;;;;;;;;;;;;;;;;4710539;28;1425212;-79
2024/01/29 02:02:32;;;;;;;;;;;;;;;;;;4595350;28;2705183;-79
2024/01/29 02:05:00;;;;;;;;;;;;;;;;;;4528541;28;2700181;-79
2024/01/29 02:07:28;;;;;;;;;;;;;;;;;;4517079;28;2845204;-79
2024/01/29 02:09:59;;;;;;;;;;;;;;;;;;4574573;28;3044202;-79
2024/01/29 02:12:26;;;;;;;;;;;;;;;;;;4549485;28;1838221;-79
2024/01/29 02:14:55;;;;;;;;;;;;;;;;;;4529467;28;4529222;-79
2024/01/29 02:17:28;;;;;;;;;;;;;;;;;;4527155;28;3116216;-79
2024/01/29 02:19:55;;;;;;;;;;;;;;;;;;4453694;28;3892204;-80
2024/01/29 02:22:23;;;;;;;;;;;;;;;;;;4559917;28;2841239;-79
2024/01/29 02:24:59;;;;;;;;;;;;;;;;;;4643826;28;1589251;-79
2024/01/29 02:27:27;;;;;;;;;;;;;;;;;;4587598;28;3327204;-79
2024/01/29 02:29:54;;;;;;;;;;;;;;;;;;4526773;28;2890194;-79
2024/01/29 02:32:24;;;;;;;;;;;;;;;;;;4607968;28;3511181;-79
2024/01/29 02:34:52;;;;;;;;;;;;;;;;;;4490269;28;4520268;-79
2024/01/29 02:37:19;;;;;;;;;;;;;;;;;;4577928;28;3607198;-79
2024/01/29 02:39:50;;;;;;;;;;;;;;;;;;4563688;28;4199192;-79
2024/01/29 02:42:18;;;;;;;;;;;;;;;;;;4459544;28;6536198;-79
2024/01/29 02:44:45;;;;;;;;;;;;;;;;;;4555734;28;3005247;-79
2024/01/29 02:47:17;;;;;;;;;;;;;;;;;;4601459;28;3767193;-79
2024/01/29 02:49:48;;;;;;;;;;;;;;;;;;4604564;28;2239191;-79
2024/01/29 02:52:17;;;;;;;;;;;;;;;;;;4476324;28;5967213;-79
2024/01/29 02:54:45;;;;;;;;;;;;;;;;;;4577801;28;3808224;-79
2024/01/29 02:57:13;;;;;;;;;;;;;;;;;;4513921;28;3906286;-79
2024/01/29 02:59:41;;;;;;;;;;;;;;;;;;4516528;28;3881189;-79
2024/01/29 03:02:08;;;;;;;;;;;;;;;;;;4542041;28;3534204;-79
2024/01/29 03:04:40;;;;;;;;;;;;;;;;;;4379137;28;11608221;-79
2024/01/29 03:07:09;;;;;;;;;;;;;;;;;;4513681;28;4701243;-79
2024/01/29 03:09:40;;;;;;;;;;;;;;;;;;4690014;28;1824236;-79
2024/01/29 03:12:08;;;;;;;;;;;;;;;;;;4456085;28;4218192;-79
2024/01/29 03:14:39;;;;;;;;;;;;;;;;;;4469832;28;5393233;-79
2024/01/29 03:17:07;;;;;;;;;;;;;;;;;;4511828;28;5211255;-80
2024/01/29 03:19:36;;;;;;;;;;;;;;;;;;4499544;28;5467205;-79
2024/01/29 03:22:04;;;;;;;;;;;;;;;;;;4482976;28;3954198;-79
2024/01/29 03:24:31;;;;;;;;;;;;;;;;;;4642584;28;3870249;-79
2024/01/29 03:26:59;;;;;;;;;;;;;;;;;;4525144;28;4514222;-79
2024/01/29 03:29:27;;;;;;;;;;;;;;;;;;4546339;28;3069227;-79
2024/01/29 03:31:55;;;;;;;;;;;;;;;;;;4488174;28;5535193;-79
2024/01/29 03:34:22;;;;;;;;;;;;;;;;;;4560441;28;2465231;-79
2024/01/29 03:36:51;;;;;;;;;;;;;;;;;;4562296;28;3926206;-79
2024/01/29 03:39:19;;;;;;;;;;;;;;;;;;4458610;28;8930219;-79
2024/01/29 03:41:54;;;;;;;;;;;;;;;;;;4491714;28;4560187;-79
2024/01/29 03:44:24;;;;;;;;;;;;;;;;;;4562878;28;3351200;-79
2024/01/29 03:46:54;;;;;;;;;;;;;;;;;;4522386;28;4950254;-79
2024/01/29 03:49:21;;;;;;;;;;;;;;;;;;4560374;28;2919232;-79
2024/01/29 03:51:49;;;;;;;;;;;;;;;;;;4443973;28;5528282;-79
2024/01/29 03:54:20;;;;;;;;;;;;;;;;;;4546723;28;3241217;-79
2024/01/29 03:56:47;;;;;;;;;;;;;;;;;;4535739;28;3911276;-79
2024/01/29 03:59:15;;;;;;;;;;;;;;;;;;4575679;28;3260231;-79
2024/01/29 04:01:44;;;;;;;;;;;;;;;;;;4513575;28;3322239;-79
2024/01/29 04:04:11;;;;;;;;;;;;;;;;;;4646749;28;2102190;-79
2024/01/29 04:06:40;;;;;;;;;;;;;;;;;;4569536;28;2842196;-79
2024/01/29 04:09:10;;;;;;;;;;;;;;;;;;4556260;28;2858257;-80
2024/01/29 04:11:39;;;;;;;;;;;;;;;;;;4522578;28;6638218;-79
2024/01/29 04:14:06;;;;;;;;;;;;;;;;;;4495771;28;4075223;-79
2024/01/29 04:16:41;;;;;;;;;;;;;;;;;;4442727;28;9954202;-79
2024/01/29 04:19:09;;;;;;;;;;;;;;;;;;4550883;28;2963235;-79
2024/01/29 04:21:40;;;;;;;;;;;;;;;;;;4601152;28;3202214;-79
2024/01/29 04:24:11;;;;;;;;;;;;;;;;;;4550726;28;3559212;-79
2024/01/29 04:26:41;;;;;;;;;;;;;;;;;;4530418;28;4413242;-79
2024/01/29 04:29:08;;;;;;;;;;;;;;;;;;4632990;28;1402272;-79
2024/01/29 04:31:38;;;;;;;;;;;;;;;;;;4528607;28;3406219;-79
2024/01/29 04:34:06;;;;;;;;;;;;;;;;;;4641664;28;2178287;-79
2024/01/29 04:36:36;;;;;;;;;;;;;;;;;;4485817;28;4191192;-79
2024/01/29 04:39:06;;;;;;;;;;;;;;;;;;4573442;28;2913208;-79
2024/01/29 04:41:34;;;;;;;;;;;;;;;;;;4549011;28;4291241;-79
2024/01/29 04:44:02;;;;;;;;;;;;;;;;;;4572683;28;2611204;-79
2024/01/29 04:46:31;;;;;;;;;;;;;;;;;;4575962;28;2223026;-79
2024/01/29 04:49:00;;;;;;;;;;;;;;;;;;4669061;28;1112195;-79
2024/01/29 04:51:27;;;;;;;;;;;;;;;;;;4653054;28;1894216;-79
2024/01/29 04:53:56;;;;;;;;;;;;;;;;;;4601032;28;2209186;-79
2024/01/29 04:56:24;;;;;;;;;;;;;;;;;;4635014;28;1617254;-79
2024/01/29 04:58:54;;;;;;;;;;;;;;;;;;4625077;28;2496189;-79
2024/01/29 05:01:22;;;;;;;;;;;;;;;;;;4613677;28;2049223;-79
2024/01/29 05:03:49;;;;;;;;;;;;;;;;;;4682259;28;2006239;-79
2024/01/29 05:06:17;;;;;;;;;;;;;;;;;;4617312;28;2695256;-79
2024/01/29 05:08:45;;;;;;;;;;;;;;;;;;4685737;28;1270179;-79
2024/01/29 05:11:12;;;;;;;;;;;;;;;;;;4593055;28;4463291;-79
2024/01/29 05:13:40;;;;;;;;;;;;;;;;;;4598894;28;1680240;-79
2024/01/29 05:16:10;;;;;;;;;;;;;;;;;;4563818;28;3780230;-79
2024/01/29 05:18:37;;;;;;;;;;;;;;;;;;4658956;28;1777183;-79
2024/01/29 05:21:08;;;;;;;;;;;;;;;;;;4494184;28;5815240;-79
2024/01/29 05:23:36;;;;;;;;;;;;;;;;;;4463667;28;5945193;-79
2024/01/29 05:26:03;;;;;;;;;;;;;;;;;;4474367;28;5277207;-79
2024/01/29 05:28:30;;;;;;;;;;;;;;;;;;4471706;28;6907199;-79
2024/01/29 05:31:00;;;;;;;;;;;;;;;;;;4544378;28;3313192;-79
2024/01/29 05:33:29;;;;;;;;;;;;;;;;;;4543559;28;3982204;-79
2024/01/29 05:35:56;;;;;;;;;;;;;;;;;;4409483;28;6167240;-79
2024/01/29 05:38:24;;;;;;;;;;;;;;;;;;4573995;28;3491198;-79
2024/01/29 05:40:52;;;;;;;;;;;;;;;;;;4523844;28;4243196;-79
2024/01/29 05:43:22;;;;;;;;;;;;;;;;;;4528421;28;3168273;-79
2024/01/29 05:45:50;;;;;;;;;;;;;;;;;;4555761;28;3801208;-79
2024/01/29 05:48:17;;;;;;;;;;;;;;;;;;4482673;28;3717183;-79
2024/01/29 05:50:45;;;;;;;;;;;;;;;;;;4597929;28;6491196;-79
2024/01/29 05:53:12;;;;;;;;;;;;;;;;;;4588635;28;2071093;-79
2024/01/29 05:55:41;;;;;;;;;;;;;;;;;;4617797;28;2034264;-79
2024/01/29 05:58:10;;;;;;;;;;;;;;;;;;4535264;28;3775267;-79
2024/01/29 06:00:37;;;;;;;;;;;;;;;;;;4562730;28;2245222;-79
2024/01/29 06:03:06;;;;;;;;;;;;;;;;;;4599279;28;2458996;-79
2024/01/29 06:05:34;;;;;;;;;;;;;;;;;;4504741;28;5098215;-79
2024/01/29 06:08:03;;;;;;;;;;;;;;;;;;4593326;28;2174182;-79
2024/01/29 06:10:32;;;;;;;;;;;;;;;;;;4537020;28;4275254;-79
2024/01/29 06:12:59;;;;;;;;;;;;;;;;;;4548732;28;2990202;-79
2024/01/29 06:15:27;;;;;;;;;;;;;;;;;;4577424;28;2317198;-79
2024/01/29 06:17:57;;;;;;;;;;;;;;;;;;4503436;28;4301199;-79
2024/01/29 06:20:25;;;;;;;;;;;;;;;;;;4533220;28;1986214;-79
2024/01/29 06:22:54;;;;;;;;;;;;;;;;;;4606471;28;3290201;-79
2024/01/29 06:25:22;;;;;;;;;;;;;;;;;;4582896;28;2112208;-79
2024/01/29 06:27:49;;;;;;;;;;;;;;;;;;4580077;28;3438267;-79
2024/01/29 06:30:16;;;;;;;;;;;;;;;;;;4687619;28;2362215;-79
2024/01/29 06:32:44;;;;;;;;;;;;;;;;;;4552482;28;3519212;-79
2024/01/29 06:35:15;;;;;;;;;;;;;;;;;;4577720;28;2930167;-79
2024/01/29 06:37:42;;;;;;;;;;;;;;;;;;4614009;28;2876191;-79
2024/01/29 06:40:17;;;;;;;;;;;;;;;;;;4579201;28;2414274;-79
2024/01/29 06:42:45;;;;;;;;;;;;;;;;;;4490915;28;4117216;-79
2024/01/29 06:45:16;;;;;;;;;;;;;;;;;;4496328;28;3348240;-81
2024/01/29 06:47:45;;;;;;;;;;;;;;;;;;4495162;28;4670272;-81
2024/01/29 06:50:13;;;;;;;;;;;;;;;;;;4428562;28;4695205;-80
2024/01/29 06:52:43;;;;;;;;;;;;;;;;;;4495076;28;5522226;-80
2024/01/29 06:55:10;;;;;;;;;;;;;;;;;;4615269;28;1550274;-80
2024/01/29 06:57:38;;;;;;;;;;;;;;;;;;4593762;28;2277221;-80
2024/01/29 07:00:09;;;;;;;;;;;;;;;;;;4655830;28;1953183;-80
2024/01/29 07:02:37;;;;;;;;;;;;;;;;;;4607070;28;3100302;-80
2024/01/29 07:05:05;;;;;;;;;;;;;;;;;;4698385;28;1625193;-80
2024/01/29 07:07:33;;;;;;;;;;;;;;;;;;4573564;28;2218195;-80
2024/01/29 07:10:00;;;;;;;;;;;;;;;;;;4630345;28;1888180;-80
2024/01/29 07:12:28;;;;;;;;;;;;;;;;;;4513985;28;5036242;-80
2024/01/29 07:14:57;;;;;;;;;;;;;;;;;;4550101;28;3643253;-80
2024/01/29 07:17:25;;;;;;;;;;;;;;;;;;4454361;28;3900204;-80
2024/01/29 07:19:57;;;;;;;;;;;;;;;;;;4585907;28;5020197;-80
2024/01/29 07:22:26;;;;;;;;;;;;;;;;;;4542245;28;2880189;-80
2024/01/29 07:24:53;;;;;;;;;;;;;;;;;;4474700;28;5046216;-80
2024/01/29 07:27:20;;;;;;;;;;;;;;;;;;4690414;28;1430280;-80
2024/01/29 07:29:49;;;;;;;;;;;;;;;;;;4680967;28;1576252;-80
2024/01/29 07:32:16;;;;;;;;;;;;;;;;;;4668822;28;1192189;-80
2024/01/29 07:34:43;;;;;;;;;;;;;;;;;;4701087;28;1145203;-80
2024/01/29 07:37:11;;;;;;;;;;;;;;;;;;4693388;28;2125177;-80
2024/01/29 07:39:39;;;;;;;;;;;;;;;;;;4711038;28;1783196;-80
2024/01/29 07:42:08;;;;;;;;;;;;;;;;;;4707748;28;2075193;-80
2024/01/29 07:44:38;;;;;;;;;;;;;;;;;;4698702;28;1098188;-80
2024/01/29 07:47:07;;;;;;;;;;;;;;;;;;4713746;28;1397186;-80
2024/01/29 07:49:34;;;;;;;;;;;;;;;;;;4644314;28;2044205;-80
2024/01/29 07:52:02;;;;;;;;;;;;;;;;;;4728511;28;1438179;-80
2024/01/29 07:54:30;;;;;;;;;;;;;;;;;;4689378;28;1907228;-80
2024/01/29 07:56:57;;;;;;;;;;;;;;;;;;4790189;28;675144;-80
2024/01/29 07:59:25;;;;;;;;;;;;;;;;;;4824774;28;1273187;-80
2024/01/29 08:01:52;;;;;;;;;;;;;;;;;;4767562;28;827248;-79
2024/01/29 08:04:19;;;;;;;;;;;;;;;;;;4730117;28;1352184;-79
2024/01/29 08:06:48;;;;;;;;;;;;;;;;;;4807670;28;1493173;-80
2024/01/29 08:09:15;;;;;;;;;;;;;;;;;;4743797;28;1621190;-80
2024/01/29 08:11:44;;;;;;;;;;;;;;;;;;4840364;28;502176;-80
2024/01/29 08:14:11;;;;;;;;;;;;;;;;;;4848664;28;770255;-80
2024/01/29 08:16:40;;;;;;;;;;;;;;;;;;4792627;28;926182;-80
2024/01/29 08:19:07;;;;;;;;;;;;;;;;;;4849180;27;584254;-80
2024/01/29 08:21:35;;;;;;;;;;;;;;;;;;4860262;28;820239;-80
2024/01/29 08:24:02;;;;;;;;;;;;;;;;;;4872000;28;602189;-80
2024/01/29 08:26:29;;;;;;;;;;;;;;;;;;4846624;28;861184;-80
2024/01/29 08:28:56;;;;;;;;;;;;;;;;;;4825475;28;965171;-81
2024/01/29 08:31:24;;;;;;;;;;;;;;;;;;4862065;28;628185;-81
2024/01/29 08:33:51;;;;;;;;;;;;;;;;;;4896272;28;539169;-80
2024/01/29 08:36:20;;;;;;;;;;;;;;;;;;4868876;28;623175;-81
2024/01/29 08:38:51;;;;;;;;;;;;;;;;;;4850285;28;539191;-81
2024/01/29 08:41:18;;;;;;;;;;;;;;;;;;4855475;28;623172;-81
2024/01/29 08:43:45;;;;;;;;;;;;;;;;;;4858519;28;784194;-81
2024/01/29 08:46:16;;;;;;;;;;;;;;;;;;4764785;28;1008178;-81
2024/01/29 08:48:43;;;;;;;;;;;;;;;;;;4861588;28;546187;-79
2024/01/29 08:51:10;;;;;;;;;;;;;;;;;;4825051;28;543176;-80
2024/01/29 08:53:38;;;;;;;;;;;;;;;;;;4863390;28;478195;-80
2024/01/29 08:56:05;;;;;;;;;;;;;;;;;;4893758;28;489179;-79
2024/01/29 08:58:33;;;;;;;;;;;;;;;;;;4907220;28;715151;-80
2024/01/29 09:01:02;;;;;;;;;;;;;;;;;;4899728;28;369160;-80
2024/01/29 09:03:30;;;;;;;;;;;;;;;;;;4869435;28;426175;-80
2024/01/29 09:05:57;;;;;;;;;;;;;;;;;;4886498;28;661207;-80
2024/01/29 09:08:24;;;;;;;;;;;;;;;;;;4894966;28;578188;-80
2024/01/29 09:10:52;;;;;;;;;;;;;;;;;;4885406;28;610180;-80
2024/01/29 09:13:19;;;;;;;;;;;;;;;;;;4892762;28;359224;-80
2024/01/29 09:15:46;;;;;;;;;;;;;;;;;;4888614;28;417172;-80
2024/01/29 09:18:14;;;;;;;;;;;;;;;;;;4904823;28;356177;-81
2024/01/29 09:20:50;;;;;;;;;;;;;;;;;;4911118;28;405176;-80
2024/01/29 09:23:18;;;;;;;;;;;;;;;;;;4852277;28;413139;-80
2024/01/29 09:25:45;;;;;;;;;;;;;;;;;;4900992;28;280152;-80
2024/01/29 09:28:13;;;;;;;;;;;;;;;;;;4905033;28;518178;-80
2024/01/29 09:30:40;;;;;;;;;;;;;;;;;;4878549;28;659185;-80
2024/01/29 09:33:10;;;;;;;;;;;;;;;;;;4917196;28;248216;-80
2024/01/29 09:35:44;;;;;;;;;;;;;;;;;;4882658;28;448155;-80
2024/01/29 09:38:11;;;;;;;;;;;;;;;;;;4905914;28;415154;-81
2024/01/29 09:40:38;;;;;;;;;;;;;;;;;;4922941;28;298172;-80
2024/01/29 09:43:05;;;;;;;;;;;;;;;;;;4909140;28;368171;-80
2024/01/29 09:45:33;;;;;;;;;;;;;;;;;;4903153;28;371167;-80
2024/01/29 09:48:00;;;;;;;;;;;;;;;;;;4920097;28;264169;-80
2024/01/29 09:50:28;;;;;;;;;;;;;;;;;;4924933;28;557338;-81
2024/01/29 09:52:55;;;;;;;;;;;;;;;;;;4918559;28;185163;-81
2024/01/29 09:55:27;;;;;;;;;;;;;;;;;;4884742;28;753195;-81
2024/01/29 09:57:54;;;;;;;;;;;;;;;;;;4908662;28;438164;-81
2024/01/29 10:00:21;;;;;;;;;;;;;;;;;;4915575;28;186194;-81
2024/01/29 10:02:50;;;;;;;;;;;;;;;;;;4920081;28;265171;-81
2024/01/29 10:05:18;;;;;;;;;;;;;;;;;;4937990;28;185163;-82
2024/01/29 10:07:45;;;;;;;;;;;;;;;;;;4937636;28;198243;-81
2024/01/29 10:10:12;;;;;;;;;;;;;;;;;;4932683;28;197128;-82
2024/01/29 10:12:39;;;;;;;;;;;;;;;;;;4934617;28;189155;-82
2024/01/29 10:15:06;;;;;;;;;;;;;;;;;;4973544;28;25056;-82
2024/01/29 10:17:33;;;;;;;;;;;;;;;;;;4976081;28;25073;-81
2024/01/29 10:20:02;;;;;;;;;;;;;;;;;;4970228;28;28071;-82
2024/01/29 10:22:32;;;;;;;;;;;;;;;;;;4969621;28;25140;-82
2024/01/29 10:24:59;;;;;;;;;;;;;;;;;;4973719;28;28158;-82
2024/01/29 10:27:26;;;;;;;;;;;;;;;;;;4978014;28;25109;-82
2024/01/29 10:29:53;;;;;;;;;;;;;;;;;;4974078;28;26086;-82
2024/01/29 10:32:20;;;;;;;;;;;;;;;;;;4976091;28;28119;-82
2024/01/29 10:34:48;;;;;;;;;;;;;;;;;;4958982;28;29145;-82
2024/01/29 10:37:15;;;;;;;;;;;;;;;;;;4976501;28;30088;-82
2024/01/29 10:39:42;;;;;;;;;;;;;;;;;;4976034;28;26066;-83
2024/01/29 10:42:17;;;;;;;;;;;;;;;;;;4979727;28;25081;-82
2024/01/29 10:44:44;;;;;;;;;;;;;;;;;;4978698;28;29205;-83
2024/01/29 10:47:11;;;;;;;;;;;;;;;;;;4977716;28;25055;-83
2024/01/29 10:49:38;;;;;;;;;;;;;;;;;;4983146;28;29110;-83
2024/01/29 10:52:06;;;;;;;;;;;;;;;;;;4985456;28;25064;-83
2024/01/29 10:54:33;;;;;;;;;;;;;;;;;;4981644;28;29178;-83
2024/01/29 10:57:00;;;;;;;;;;;;;;;;;;4977149;28;29073;-83
2024/01/29 10:59:28;;;;;;;;;;;;;;;;;;4984546;28;25150;-83
2024/01/29 11:01:55;;;;;;;;;;;;;;;;;;4984555;28;27147;-83
2024/01/29 11:04:29;;;;;;;;;;;;;;;;;;4987779;28;25125;-83
2024/01/29 11:06:59;;;;;;;;;;;;;;;;;;4981803;28;25106;-83
2024/01/29 11:09:27;;;;;;;;;;;;;;;;;;4962199;28;28093;-82
2024/01/29 11:11:57;;;;;;;;;;;;;;;;;;4978954;28;29074;-83
2024/01/29 11:14:24;;;;;;;;;;;;;;;;;;4970428;28;27087;-83
2024/01/29 11:16:55;;;;;;;;;;;;;;;;;;4980858;28;25268;-83
2024/01/29 11:19:23;;;;;;;;;;;;;;;;;;4975387;28;29104;-83
2024/01/29 11:21:50;;;;;;;;;;;;;;;;;;4978800;28;28111;-83
2024/01/29 11:24:19;;;;;;;;;;;;;;;;;;4974140;28;25056;-83
2024/01/29 11:26:47;;;;;;;;;;;;;;;;;;4979445;28;25099;-83
2024/01/29 11:29:16;;;;;;;;;;;;;;;;;;4976638;28;25078;-82
2024/01/29 11:31:43;;;;;;;;;;;;;;;;;;4973747;28;25090;-82
2024/01/29 11:34:14;;;;;;;;;;;;;;;;;;4978359;28;25083;-83
2024/01/29 11:36:41;;;;;;;;;;;;;;;;;;4979256;28;25129;-82
2024/01/29 11:39:08;;;;;;;;;;;;;;;;;;4972599;28;28073;-82
2024/01/29 11:41:35;;;;;;;;;;;;;;;;;;4988274;28;28109;-82
2024/01/29 11:44:05;;;;;;;;;;;;;;;;;;4989734;28;27058;-81
2024/01/29 11:46:32;;;;;;;;;;;;;;;;;;4976824;28;28077;-82
2024/01/29 11:49:00;;;;;;;;;;;;;;;;;;4975502;28;25105;-82
2024/01/29 11:51:27;;;;;;;;;;;;;;;;;;4980878;28;27104;-82
2024/01/29 11:53:55;;;;;;;;;;;;;;;;;;4980766;28;25144;-82
2024/01/29 11:56:24;;;;;;;;;;;;;;;;;;4984047;28;26102;-82
2024/01/29 11:58:51;;;;;;;;;;;;;;;;;;4964166;28;25074;-82
2024/01/29 12:01:18;;;;;;;;;;;;;;;;;;4966837;28;25088;-82
2024/01/29 12:03:48;;;;;;;;;;;;;;;;;;4970643;28;28091;-82
2024/01/29 12:06:16;;;;;;;;;;;;;;;;;;4973771;28;25087;-82
2024/01/29 12:08:45;;;;;;;;;;;;;;;;;;4953106;28;25066;-82
2024/01/29 12:11:14;;;;;;;;;;;;;;;;;;4958972;28;26076;-81
2024/01/29 12:13:46;;;;;;;;;;;;;;;;;;4964637;28;27091;-81
2024/01/29 12:16:14;;;;;;;;;;;;;;;;;;4977626;28;29071;-82
2024/01/29 12:18:41;;;;;;;;;;;;;;;;;;4975570;28;29081;-82
2024/01/29 12:21:08;;;;;;;;;;;;;;;;;;4967107;28;27135;-82
2024/01/29 12:23:35;;;;;;;;;;;;;;;;;;4974278;28;25087;-81
2024/01/29 12:26:02;;;;;;;;;;;;;;;;;;4980579;28;25064;-81
2024/01/29 12:28:30;;;;;;;;;;;;;;;;;;4970893;28;25082;-82
2024/01/29 12:30:57;;;;;;;;;;;;;;;;;;4967565;28;29091;-81
2024/01/29 12:33:31;;;;;;;;;;;;;;;;;;4981251;28;25101;-82
2024/01/29 12:35:59;;;;;;;;;;;;;;;;;;4968474;28;28075;-83
2024/01/29 12:38:26;;;;;;;;;;;;;;;;;;4967319;28;28155;-82
2024/01/29 12:40:53;;;;;;;;;;;;;;;;;;4967500;28;25061;-83
2024/01/29 12:43:20;;;;;;;;;;;;;;;;;;4962830;28;27064;-82
2024/01/29 12:45:47;;;;;;;;;;;;;;;;;;4963805;28;25090;-82
2024/01/29 12:48:23;;;;;;;;;;;;;;;;;;4962775;28;25098;-80
2024/01/29 12:50:50;;;;;;;;;;;;;;;;;;4959064;28;26138;-80
2024/01/29 12:53:17;;;;;;;;;;;;;;;;;;4964506;28;25068;-80
2024/01/29 12:55:50;;;;;;;;;;;;;;;;;;4962255;28;25150;-80
2024/01/29 12:58:17;;;;;;;;;;;;;;;;;;4952646;28;25075;-80
2024/01/29 13:00:44;;;;;;;;;;;;;;;;;;4960553;28;25101;-80
2024/01/29 13:03:11;;;;;;;;;;;;;;;;;;4954947;28;25171;-80
2024/01/29 13:05:38;;;;;;;;;;;;;;;;;;4954574;28;27289;-81
2024/01/29 13:08:05;;;;;;;;;;;;;;;;;;4960374;28;25076;-80
2024/01/29 13:10:33;;;;;;;;;;;;;;;;;;4953810;28;26164;-81
2024/01/29 13:13:00;;;;;;;;;;;;;;;;;;4956075;28;25056;-81
2024/01/29 13:15:29;;;;;;;;;;;;;;;;;;4955937;28;29148;-81
2024/01/29 13:17:56;;;;;;;;;;;;;;;;;;4968291;28;29057;-81
2024/01/29 13:20:27;;;;;;;;;;;;;;;;;;4973310;28;29136;-81
2024/01/29 13:22:55;;;;;;;;;;;;;;;;;;4943724;28;29144;-81
2024/01/29 13:25:22;;;;;;;;;;;;;;;;;;4937667;28;26168;-80
2024/01/29 13:27:52;;;;;;;;;;;;;;;;;;4937680;28;29073;-81
2024/01/29 13:30:24;;;;;;;;;;;;;;;;;;4926964;28;28189;-80
2024/01/29 13:32:51;;;;;;;;;;;;;;;;;;4933869;28;28099;-81
2024/01/29 13:35:18;;;;;;;;;;;;;;;;;;4940328;28;25146;-81
2024/01/29 13:37:45;;;;;;;;;;;;;;;;;;4973925;28;25080;-81
2024/01/29 13:40:12;;;;;;;;;;;;;;;;;;4977107;28;25147;-81
2024/01/29 13:42:39;;;;;;;;;;;;;;;;;;4965400;28;25051;-81
2024/01/29 13:45:07;;;;;;;;;;;;;;;;;;4960614;28;25444;-80
2024/01/29 13:47:34;;;;;;;;;;;;;;;;;;4981746;28;25109;-81
2024/01/29 13:50:03;;;;;;;;;;;;;;;;;;4973479;28;25064;-81
2024/01/29 13:52:30;;;;;;;;;;;;;;;;;;4962201;28;25101;-81
2024/01/29 13:54:57;;;;;;;;;;;;;;;;;;4958437;28;26116;-81
2024/01/29 13:57:24;;;;;;;;;;;;;;;;;;4957407;28;25144;-82
2024/01/29 13:59:51;;;;;;;;;;;;;;;;;;4960280;28;26071;-82
2024/01/29 14:02:18;;;;;;;;;;;;;;;;;;4957501;28;25175;-82
2024/01/29 14:04:45;;;;;;;;;;;;;;;;;;4965388;28;27065;-82
2024/01/29 14:07:13;;;;;;;;;;;;;;;;;;4961590;28;27123;-82
2024/01/29 14:09:43;;;;;;;;;;;;;;;;;;4969380;28;25179;-82
2024/01/29 14:12:10;;;;;;;;;;;;;;;;;;4966117;28;25070;-82
2024/01/29 14:14:37;;;;;;;;;;;;;;;;;;4970811;28;27131;-82
2024/01/29 14:17:12;;;;;;;;;;;;;;;;;;4964974;28;28103;-82
2024/01/29 14:19:39;;;;;;;;;;;;;;;;;;4970912;28;29089;-82
2024/01/29 14:22:06;;;;;;;;;;;;;;;;;;4936436;28;296200;-82
2024/01/29 14:24:33;;;;;;;;;;;;;;;;;;4977206;28;25094;-82
2024/01/29 14:27:01;;;;;;;;;;;;;;;;;;4980118;28;28175;-82
2024/01/29 14:29:28;;;;;;;;;;;;;;;;;;4980991;28;25150;-82
2024/01/29 14:31:56;;;;;;;;;;;;;;;;;;4975358;28;28075;-81
2024/01/29 14:34:23;;;;;;;;;;;;;;;;;;4977196;28;27147;-82
2024/01/29 14:36:54;;;;;;;;;;;;;;;;;;4999981;28;25102;-82
2024/01/29 14:39:21;;;;;;;;;;;;;;;;;;4984895;28;27069;-82
2024/01/29 14:41:48;;;;;;;;;;;;;;;;;;4983685;28;26119;-81
2024/01/29 14:44:15;;;;;;;;;;;;;;;;;;4985922;28;27057;-82
2024/01/29 14:46:43;;;;;;;;;;;;;;;;;;4987390;28;26093;-82
2024/01/29 14:49:16;;;;;;;;;;;;;;;;;;4977416;28;28114;-82
2024/01/29 14:51:46;;;;;;;;;;;;;;;;;;4978854;28;25137;-82
2024/01/29 14:54:13;;;;;;;;;;;;;;;;;;4984857;28;25093;-82
2024/01/29 14:56:40;;;;;;;;;;;;;;;;;;4979468;28;27115;-81
2024/01/29 14:59:07;;;;;;;;;;;;;;;;;;4993749;28;25071;-82
2024/01/29 15:01:34;;;;;;;;;;;;;;;;;;4988231;28;27160;-82
2024/01/29 15:04:03;;;;;;;;;;;;;;;;;;4989463;28;29133;-82
2024/01/29 15:06:33;;;;;;;;;;;;;;;;;;4987679;28;25139;-82
2024/01/29 15:09:03;;;;;;;;;;;;;;;;;;4984967;28;29076;-81
2024/01/29 15:11:30;;;;;;;;;;;;;;;;;;4992316;28;26130;-82
2024/01/29 15:13:58;;;;;;;;;;;;;;;;;;4987422;28;28070;-82
2024/01/29 15:16:25;;;;;;;;;;;;;;;;;;4984629;28;26076;-82
2024/01/29 15:18:53;;;;;;;;;;;;;;;;;;4990250;28;28133;-82
2024/01/29 15:21:20;;;;;;;;;;;;;;;;;;4994299;28;26115;-82
2024/01/29 15:23:47;;;;;;;;;;;;;;;;;;4987032;28;25064;-82
2024/01/29 15:26:14;;;;;;;;;;;;;;;;;;4982342;28;25064;-81
2024/01/29 15:28:42;;;;;;;;;;;;;;;;;;4986899;28;26078;-82
2024/01/29 15:31:09;;;;;;;;;;;;;;;;;;4986755;28;30093;-82
2024/01/29 15:33:37;;;;;;;;;;;;;;;;;;4975215;28;115177;-83
2024/01/29 15:36:04;;;;;;;;;;;;;;;;;;4991692;28;25128;-83
2024/01/29 15:38:31;;;;;;;;;;;;;;;;;;4993652;28;31057;-83
2024/01/29 15:40:58;;;;;;;;;;;;;;;;;;5006314;28;28077;-83
2024/01/29 15:43:26;;;;;;;;;;;;;;;;;;5012886;28;26062;-82
2024/01/29 15:45:56;;;;;;;;;;;;;;;;;;5017983;28;26074;-82
2024/01/29 15:48:25;;;;;;;;;;;;;;;;;;5012909;28;25107;-83
2024/01/29 15:50:52;;;;;;;;;;;;;;;;;;5015650;28;26074;-84
2024/01/29 15:53:19;;;;;;;;;;;;;;;;;;4999419;28;27226;-82
2024/01/29 15:55:47;;;;;;;;;;;;;;;;;;4998227;28;26124;-84
2024/01/29 15:58:14;;;;;;;;;;;;;;;;;;4997743;28;28142;-82
2024/01/29 16:00:41;;;;;;;;;;;;;;;;;;4997616;28;34152;-84
2024/01/29 16:03:08;;;;;;;;;;;;;;;;;;4895042;28;437161;-83
2024/01/29 16:05:37;;;;;;;;;;;;;;;;;;4865807;28;478194;-84
2024/01/29 16:08:07;;;;;;;;;;;;;;;;;;4875835;28;691233;-83
2024/01/29 16:10:34;;;;;;;;;;;;;;;;;;4867780;28;438151;-84
2024/01/29 16:13:01;;;;;;;;;;;;;;;;;;4887354;28;439144;-83
2024/01/29 16:15:28;;;;;;;;;;;;;;;;;;4910378;28;512181;-82
2024/01/29 16:17:56;;;;;;;;;;;;;;;;;;4864124;28;416160;-83
2024/01/29 16:20:23;;;;;;;;;;;;;;;;;;4825142;28;985195;-83
2024/01/29 16:22:50;;;;;;;;;;;;;;;;;;4900795;28;283165;-82
2024/01/29 16:25:18;;;;;;;;;;;;;;;;;;4890100;28;686165;-82
2024/01/29 16:27:46;;;;;;;;;;;;;;;;;;4873265;28;794236;-83
2024/01/29 16:30:13;;;;;;;;;;;;;;;;;;4791136;28;1134202;-82
2024/01/29 16:32:40;;;;;;;;;;;;;;;;;;4849479;28;893156;-82